Time,TemperatureF,DewpointF,PressureIn,WindDirection,WindDirectionDegrees,WindSpeedMPH,WindSpeedGustMPH,Humidity,HourlyPrecipIn,Conditions,Clouds,dailyrainin,SoftwareType,DateUTC
2013-04-11 00:00:00,52.0,52.0,30.01,West,259,1.0,1.0,100,0.00,,,0.00,Wunderground v.1.12,2013-04-11 07:00:00,
2013-04-11 00:10:00,52.0,52.0,30.00,West,270,1.0,5.0,100,0.00,,,0.00,Wunderground v.1.12,2013-04-11 07:10:00,
2013-04-11 00:20:00,52.2,52.2,29.99,WNW,286,4.0,4.0,100,0.00,,,0.00,Wunderground v.1.12,2013-04-11 07:20:00,
2013-04-11 00:30:00,51.7,51.7,29.99,WNW,300,5.0,7.0,100,0.00,,,0.00,Wunderground v.1.12,2013-04-11 07:30:00,
2013-04-11 00:40:00,51.6,51.6,29.99,WNW,300,4.0,4.0,100,0.00,,,0.00,Wunderground v.1.12,2013-04-11 07:40:00,
2013-04-11 00:50:00,51.7,51.7,30.00,NW,307,4.0,8.0,100,0.00,,,0.00,Wunderground v.1.12,2013-04-11 07:50:00,
2013-04-11 01:00:00,51.6,51.6,30.00,WNW,291,8.0,8.0,100,0.00,,,0.00,Wunderground v.1.12,2013-04-11 08:00:00,
2013-04-11 01:10:00,51.4,51.4,29.99,WNW,292,6.0,6.0,100,0.00,,,0.00,Wunderground v.1.12,2013-04-11 08:10:00,
2013-04-11 01:20:00,51.3,51.3,29.99,WNW,298,6.0,6.0,100,0.00,,,0.00,Wunderground v.1.12,2013-04-11 08:20:00,
2013-04-11 01:30:00,51.1,51.1,29.99,SW,226,5.0,9.0,100,0.00,,,0.00,Wunderground v.1.12,2013-04-11 08:30:00,
2013-04-11 01:40:00,50.8,50.8,29.99,WNW,282,5.0,12.0,100,0.00,,,0.00,Wunderground v.1.12,2013-04-11 08:40:00,
2013-04-11 01:50:00,50.7,50.7,29.99,WNW,299,6.0,6.0,100,0.00,,,0.00,Wunderground v.1.12,2013-04-11 08:50:00,
2013-04-11 02:00:00,50.2,50.2,29.99,West,269,8.0,8.0,100,0.00,,,0.00,Wunderground v.1.12,2013-04-11 09:00:00,
2013-04-11 02:10:00,49.9,49.9,29.98,WNW,288,7.0,7.0,100,0.00,,,0.00,Wunderground v.1.12,2013-04-11 09:10:00,
2013-04-11 02:20:00,49.8,49.8,29.98,WNW,297,6.0,6.0,100,0.00,,,0.00,Wunderground v.1.12,2013-04-11 09:20:00,
2013-04-11 02:30:00,49.6,49.6,29.98,WNW,301,7.0,7.0,100,0.00,,,0.00,Wunderground v.1.12,2013-04-11 09:30:00,
2013-04-11 02:40:00,49.5,49.5,29.96,NW,321,7.0,7.0,100,0.00,,,0.00,Wunderground v.1.12,2013-04-11 09:40:00,
2013-04-11 02:50:00,49.4,49.4,29.97,WNW,286,7.0,7.0,100,0.00,,,0.00,Wunderground v.1.12,2013-04-11 09:50:00,
2013-04-11 03:00:00,49.2,49.2,29.97,WNW,293,9.0,19.0,100,0.00,,,0.00,Wunderground v.1.12,2013-04-11 10:00:00,
2013-04-11 03:10:00,49.1,49.1,29.96,WNW,302,9.0,11.0,100,0.00,,,0.00,Wunderground v.1.12,2013-04-11 10:10:00,
2013-04-11 03:20:00,48.8,48.8,29.96,NW,305,9.0,9.0,100,0.00,,,0.00,Wunderground v.1.12,2013-04-11 10:20:00,
2013-04-11 03:30:00,48.8,48.8,29.96,WNW,286,8.0,8.0,100,0.00,,,0.00,Wunderground v.1.12,2013-04-11 10:30:00,
2013-04-11 03:40:00,48.9,48.9,29.96,West,271,5.0,5.0,100,0.00,,,0.00,Wunderground v.1.12,2013-04-11 10:40:00,
2013-04-11 03:50:00,49.1,49.1,29.95,West,279,5.0,5.0,100,0.00,,,0.00,Wunderground v.1.12,2013-04-11 10:50:00,
2013-04-11 04:00:00,49.1,49.1,29.95,WNW,289,5.0,9.0,100,0.00,,,0.00,Wunderground v.1.12,2013-04-11 11:00:00,
2013-04-11 04:10:00,49.1,49.1,29.95,WSW,253,4.0,4.0,100,0.00,,,0.00,Wunderground v.1.12,2013-04-11 11:10:00,
2013-04-11 04:20:00,48.9,48.9,29.95,SW,225,3.0,7.0,100,0.00,,,-99.99,WeatherLink 5.8.2,2013-04-11 11:20:00,
2013-04-11 04:30:00,48.8,48.8,29.95,WNW,283,3.0,3.0,100,0.00,,,0.00,Wunderground v.1.12,2013-04-11 11:30:00,
2013-04-11 04:40:00,48.6,48.6,29.95,WSW,237,2.0,2.0,100,0.00,,,0.00,Wunderground v.1.12,2013-04-11 11:40:00,
2013-04-11 04:50:00,48.6,48.6,29.95,SW,219,4.0,4.0,100,0.00,,,0.00,Wunderground v.1.12,2013-04-11 11:50:00,
2013-04-11 05:00:00,48.5,48.5,29.95,NW,307,2.0,4.0,100,0.00,,,0.00,Wunderground v.1.12,2013-04-11 12:00:00,
2013-04-11 05:10:00,48.3,48.3,29.94,NNE,21,2.0,2.0,100,0.00,,,0.00,Wunderground v.1.12,2013-04-11 12:10:00,
2013-04-11 05:20:00,48.3,48.3,29.94,SW,214,1.0,3.0,100,0.00,,,0.00,Wunderground v.1.12,2013-04-11 12:20:00,
2013-04-11 05:30:00,48.0,48.0,29.94,SW,215,1.0,1.0,100,0.00,,,0.00,Wunderground v.1.12,2013-04-11 12:30:00,
2013-04-11 05:40:00,48.2,48.2,29.93,SW,219,2.0,2.0,100,0.00,,,0.00,Wunderground v.1.12,2013-04-11 12:40:00,
2013-04-11 05:50:00,48.0,48.0,29.93,SW,225,2.0,2.0,100,0.00,,,0.00,Wunderground v.1.12,2013-04-11 12:50:00,
2013-04-11 06:00:00,47.9,47.9,29.93,SW,233,1.0,1.0,100,0.00,,,0.00,Wunderground v.1.12,2013-04-11 13:00:00,
2013-04-11 06:10:00,47.9,47.9,29.93,SSW,203,2.0,2.0,100,0.00,,,0.00,Wunderground v.1.12,2013-04-11 13:10:00,
2013-04-11 06:20:00,47.6,47.6,29.93,SW,225,1.0,5.0,100,0.00,,,-99.99,WeatherLink 5.8.2,2013-04-11 13:20:00,
2013-04-11 06:30:00,47.6,47.6,29.93,SW,217,1.0,1.0,100,0.00,,,0.00,Wunderground v.1.12,2013-04-11 13:30:00,
2013-04-11 06:40:00,47.6,47.6,29.93,SW,221,1.0,1.0,100,0.00,,,0.00,Wunderground v.1.12,2013-04-11 13:40:00,
2013-04-11 06:50:00,47.4,47.4,29.94,SW,215,0.0,0.0,100,0.00,,,0.00,Wunderground v.1.12,2013-04-11 13:50:00,
2013-04-11 07:00:00,47.0,47.0,29.94,SW,215,0.0,0.0,100,0.00,,,0.00,Wunderground v.1.12,2013-04-11 14:00:00,
2013-04-11 07:10:00,46.5,46.5,29.93,SW,215,0.0,0.0,100,0.00,,,0.00,Wunderground v.1.12,2013-04-11 14:10:00,
2013-04-11 07:20:00,46.1,46.1,29.94,SSW,211,0.0,0.0,100,0.00,,,0.00,Wunderground v.1.12,2013-04-11 14:20:00,
2013-04-11 07:30:00,45.5,45.5,29.94,SSE,150,0.0,0.0,100,0.00,,,0.00,Wunderground v.1.12,2013-04-11 14:30:00,
2013-04-11 07:40:00,45.1,45.1,29.94,ESE,102,1.0,1.0,100,0.00,,,0.00,Wunderground v.1.12,2013-04-11 14:40:00,
2013-04-11 07:50:00,45.5,45.5,29.95,ESE,102,0.0,0.0,100,0.00,,,0.00,Wunderground v.1.12,2013-04-11 14:50:00,
2013-04-11 08:00:00,46.5,46.5,29.95,ESE,102,0.0,0.0,100,0.00,,,0.00,Wunderground v.1.12,2013-04-11 15:00:00,
2013-04-11 08:10:00,48.3,48.3,29.95,ENE,67,1.0,1.0,100,0.00,,,0.00,Wunderground v.1.12,2013-04-11 15:10:00,
2013-04-11 08:20:00,49.8,49.8,29.95,ENE,67,1.0,2.0,100,0.00,,,0.00,Wunderground v.1.12,2013-04-11 15:20:00,
2013-04-11 08:30:00,50.5,50.5,29.95,NE,45,1.0,1.0,100,0.00,,,0.00,Wunderground v.1.12,2013-04-11 15:30:00,
2013-04-11 08:40:00,52.0,52.0,29.95,NE,45,0.0,0.0,100,0.00,,,0.00,Wunderground v.1.12,2013-04-11 15:40:00,
2013-04-11 08:50:00,52.9,52.9,29.95,ENE,73,0.0,2.0,100,0.00,,,0.00,Wunderground v.1.12,2013-04-11 15:50:00,
2013-04-11 09:00:00,53.9,53.9,29.94,NE,45,0.0,3.0,100,0.00,,,-99.99,WeatherLink 5.8.2,2013-04-11 16:00:00,
2013-04-11 09:10:00,54.4,54.4,29.94,NE,49,0.0,2.0,100,0.00,,,0.00,Wunderground v.1.12,2013-04-11 16:10:00,
2013-04-11 09:20:00,55.3,55.3,29.94,NE,50,0.0,0.0,100,0.00,,,0.00,Wunderground v.1.12,2013-04-11 16:20:00,
2013-04-11 09:30:00,57.3,57.3,29.94,NE,51,0.0,0.0,100,0.00,,,0.00,Wunderground v.1.12,2013-04-11 16:30:00,
2013-04-11 09:40:00,56.5,56.5,29.93,SSW,199,0.0,0.0,100,0.00,,,0.00,Wunderground v.1.12,2013-04-11 16:40:00,
2013-04-11 09:50:00,56.9,56.9,29.93,SSW,205,1.0,1.0,100,0.00,,,0.00,Wunderground v.1.12,2013-04-11 16:50:00,
2013-04-11 10:00:00,58.0,58.0,29.93,WNW,287,1.0,1.0,100,0.00,,,0.00,Wunderground v.1.12,2013-04-11 17:00:00,
2013-04-11 10:10:00,59.0,59.0,29.93,WNW,303,0.0,0.0,100,0.00,,,0.00,Wunderground v.1.12,2013-04-11 17:10:00,
2013-04-11 10:20:00,60.4,60.4,29.93,WNW,283,1.0,2.0,100,0.00,,,0.00,Wunderground v.1.12,2013-04-11 17:20:00,
2013-04-11 10:30:00,59.3,59.3,29.93,WNW,292,6.0,12.0,100,0.00,,,-99.99,WeatherLink 5.8.2,2013-04-11 17:30:00,
2013-04-11 10:40:00,58.7,58.7,29.93,West,275,7.0,8.0,100,0.00,,,0.00,Wunderground v.1.12,2013-04-11 17:40:00,
2013-04-11 10:50:00,58.0,58.0,29.94,West,259,7.0,7.0,100,0.00,,,0.00,Wunderground v.1.12,2013-04-11 17:50:00,
2013-04-11 11:00:00,58.3,58.3,29.94,SW,220,6.0,6.0,100,0.00,,,0.00,Wunderground v.1.12,2013-04-11 18:00:00,
2013-04-11 11:10:00,58.7,58.7,29.94,West,281,5.0,10.0,100,0.00,,,0.00,Wunderground v.1.12,2013-04-11 18:10:00,
2013-04-11 11:20:00,58.7,58.7,29.94,WNW,287,5.0,5.0,100,0.00,,,0.00,Wunderground v.1.12,2013-04-11 18:20:00,
2013-04-11 11:30:00,59.3,59.3,29.94,WNW,298,4.0,4.0,100,0.00,,,0.00,Wunderground v.1.12,2013-04-11 18:30:00,
2013-04-11 11:40:00,60.1,60.1,29.94,West,277,4.0,5.0,100,0.00,,,0.00,Wunderground v.1.12,2013-04-11 18:40:00,
2013-04-11 11:50:00,60.2,60.2,29.93,SW,234,5.0,7.0,100,0.00,,,0.00,Wunderground v.1.12,2013-04-11 18:50:00,
2013-04-11 12:00:00,59.5,59.5,29.93,West,276,7.0,8.0,100,0.00,,,0.00,Wunderground v.1.12,2013-04-11 19:00:00,
2013-04-11 12:10:00,59.2,59.2,29.92,WNW,295,7.0,8.0,100,0.00,,,0.00,Wunderground v.1.12,2013-04-11 19:10:00,
2013-04-11 12:20:00,59.5,59.5,29.91,WNW,290,7.0,14.0,100,0.00,,,0.00,Wunderground v.1.12,2013-04-11 19:20:00,
2013-04-11 12:30:00,59.6,59.6,29.91,WNW,286,7.0,9.0,100,0.00,,,0.00,Wunderground v.1.12,2013-04-11 19:30:00,
2013-04-11 12:40:00,59.6,59.6,29.90,NW,310,8.0,8.0,100,0.00,,,0.00,Wunderground v.1.12,2013-04-11 19:40:00,
2013-04-11 12:50:00,59.8,59.8,29.90,WNW,282,8.0,8.0,100,0.00,,,0.00,Wunderground v.1.12,2013-04-11 19:50:00,
2013-04-11 13:00:00,59.6,59.6,29.90,WNW,286,6.0,9.0,100,0.00,,,0.00,Wunderground v.1.12,2013-04-11 20:00:00,
2013-04-11 13:10:00,59.8,59.8,29.90,SW,225,7.0,16.0,100,0.00,,,0.00,Wunderground v.1.12,2013-04-11 20:10:00,
2013-04-11 13:20:00,60.2,60.2,29.90,SSW,209,6.0,8.0,100,0.00,,,0.00,Wunderground v.1.12,2013-04-11 20:20:00,
2013-04-11 13:30:00,62.3,62.3,29.90,WNW,284,4.0,4.0,100,0.00,,,0.00,Wunderground v.1.12,2013-04-11 20:30:00,
2013-04-11 13:40:00,63.4,63.4,29.88,SSW,209,4.0,4.0,100,0.00,,,0.00,Wunderground v.1.12,2013-04-11 20:40:00,
2013-04-11 13:50:00,63.7,63.7,29.88,SW,219,6.0,6.0,100,0.00,,,0.00,Wunderground v.1.12,2013-04-11 20:50:00,
2013-04-11 14:00:00,62.7,62.7,29.88,SSW,211,5.0,10.0,100,0.00,,,0.00,Wunderground v.1.12,2013-04-11 21:00:00,
2013-04-11 14:10:00,62.7,62.7,29.87,SSE,148,6.0,6.0,100,0.00,,,0.00,Wunderground v.1.12,2013-04-11 21:10:00,
2013-04-11 14:20:00,64.7,64.7,29.85,South,189,5.0,5.0,100,0.00,,,0.00,Wunderground v.1.12,2013-04-11 21:20:00,
2013-04-11 14:30:00,65.5,65.5,29.85,SSW,203,4.0,4.0,100,0.00,,,0.00,Wunderground v.1.12,2013-04-11 21:30:00,
2013-04-11 14:40:00,65.5,65.5,29.84,SW,232,7.0,7.0,100,0.00,,,0.00,Wunderground v.1.12,2013-04-11 21:40:00,
2013-04-11 14:50:00,67.6,67.6,29.84,SSW,195,4.0,6.0,100,0.00,,,0.00,Wunderground v.1.12,2013-04-11 21:50:00,
2013-04-11 15:00:00,68.4,68.4,29.84,SW,227,5.0,7.0,100,0.00,,,0.00,Wunderground v.1.12,2013-04-11 22:00:00,
2013-04-11 15:10:00,68.8,68.8,29.82,SW,222,4.0,7.0,100,0.00,,,0.00,Wunderground v.1.12,2013-04-11 22:10:00,
2013-04-11 15:20:00,68.8,68.8,29.83,SW,218,5.0,5.0,100,0.00,,,0.00,Wunderground v.1.12,2013-04-11 22:20:00,
2013-04-11 15:30:00,63.2,63.2,29.83,WNW,292,8.0,16.0,100,0.00,,,-99.99,WeatherLink 5.8.2,2013-04-11 22:30:00,
2013-04-11 15:40:00,63.4,63.4,29.83,SW,217,6.0,6.0,100,0.00,,,0.00,Wunderground v.1.12,2013-04-11 22:40:00,
2013-04-11 15:50:00,63.2,63.2,29.83,West,273,6.0,6.0,100,0.00,,,0.00,Wunderground v.1.12,2013-04-11 22:50:00,
2013-04-11 16:00:00,62.4,62.4,29.83,WSW,251,5.0,5.0,100,0.00,,,0.00,Wunderground v.1.12,2013-04-11 23:00:00,
2013-04-11 16:10:00,62.9,62.9,29.82,WNW,284,5.0,5.0,100,0.00,,,0.00,Wunderground v.1.12,2013-04-11 23:10:00,
2013-04-11 16:20:00,61.3,61.3,29.82,SSE,167,6.0,6.0,100,0.00,,,0.00,Wunderground v.1.12,2013-04-11 23:20:00,
2013-04-11 16:30:00,60.7,60.7,29.82,SSW,208,4.0,8.0,100,0.00,,,0.00,Wunderground v.1.12,2013-04-11 23:30:00,
2013-04-11 16:40:00,59.6,59.6,29.81,West,273,6.0,7.0,100,0.00,,,0.00,Wunderground v.1.12,2013-04-11 23:40:00,
2013-04-11 16:50:00,58.4,58.4,29.82,NW,306,6.0,6.0,100,0.00,,,0.00,Wunderground v.1.12,2013-04-11 23:50:00,
2013-04-11 17:00:00,59.0,59.0,29.82,West,276,5.0,5.0,100,0.00,,,0.00,Wunderground v.1.12,2013-04-12 00:00:00,
2013-04-11 17:10:00,59.6,59.6,29.81,SSW,206,4.0,4.0,100,0.00,,,0.00,Wunderground v.1.12,2013-04-12 00:10:00,
2013-04-11 17:20:00,58.3,58.3,29.81,WSW,248,6.0,7.0,100,0.00,,,0.00,Wunderground v.1.12,2013-04-12 00:20:00,
2013-04-11 17:30:00,57.6,57.6,29.81,West,263,6.0,6.0,100,0.00,,,0.00,Wunderground v.1.12,2013-04-12 00:30:00,
2013-04-11 17:40:00,57.0,57.0,29.81,WNW,289,4.0,4.0,100,0.00,,,0.00,Wunderground v.1.12,2013-04-12 00:40:00,
2013-04-11 17:50:00,57.2,57.2,29.80,WNW,286,4.0,5.0,100,0.00,,,0.00,Wunderground v.1.12,2013-04-12 00:50:00,
2013-04-11 18:00:00,56.6,56.6,29.80,WNW,292,4.0,6.0,100,0.00,,,0.00,Wunderground v.1.12,2013-04-12 01:00:00,
2013-04-11 18:10:00,55.4,55.4,29.79,SW,225,3.0,7.0,100,0.00,,,-99.99,WeatherLink 5.8.2,2013-04-12 01:10:00,
2013-04-11 18:20:00,55.4,55.4,29.79,WSW,243,3.0,3.0,100,0.00,,,0.00,Wunderground v.1.12,2013-04-12 01:20:00,
2013-04-11 18:30:00,54.7,54.7,29.79,WNW,291,2.0,2.0,100,0.00,,,0.00,Wunderground v.1.12,2013-04-12 01:30:00,
2013-04-11 18:40:00,54.8,54.8,29.78,West,267,0.0,0.0,100,0.00,,,0.00,Wunderground v.1.12,2013-04-12 01:40:00,
2013-04-11 18:50:00,54.8,54.8,29.79,SW,215,2.0,8.0,100,0.00,,,0.00,Wunderground v.1.12,2013-04-12 01:50:00,
2013-04-11 19:00:00,54.4,54.4,29.79,WNW,292,1.0,1.0,100,0.00,,,0.00,Wunderground v.1.12,2013-04-12 02:00:00,
2013-04-11 19:10:00,53.9,53.9,29.79,NNE,26,0.0,1.0,100,0.00,,,0.00,Wunderground v.1.12,2013-04-12 02:10:00,
2013-04-11 19:20:00,53.6,53.6,29.78,NNE,33,0.0,0.0,100,0.00,,,0.00,Wunderground v.1.12,2013-04-12 02:20:00,
2013-04-11 19:30:00,53.2,53.2,29.78,NE,41,1.0,3.0,100,0.00,,,0.00,Wunderground v.1.12,2013-04-12 02:30:00,
2013-04-11 19:40:00,52.2,52.2,29.78,NE,47,2.0,2.0,100,0.00,,,0.00,Wunderground v.1.12,2013-04-12 02:40:00,
2013-04-11 19:50:00,51.1,51.1,29.77,NNE,24,1.0,1.0,100,0.00,,,0.00,Wunderground v.1.12,2013-04-12 02:50:00,
2013-04-11 20:00:00,50.4,50.4,29.77,NNE,20,0.0,0.0,100,0.00,,,0.00,Wunderground v.1.12,2013-04-12 03:00:00,
2013-04-11 20:10:00,49.9,49.9,29.78,N/A,-737280,0.0,0.0,100,0.00,,,0.00,Wunderground v.1.12,2013-04-12 03:10:00,
2013-04-11 20:20:00,49.1,49.1,29.78,NNE,26,0.0,0.0,100,0.00,,,0.00,Wunderground v.1.12,2013-04-12 03:20:00,
2013-04-11 20:30:00,49.1,49.1,29.78,NW,318,0.0,0.0,100,0.00,,,0.00,Wunderground v.1.12,2013-04-12 03:30:00,
2013-04-11 20:40:00,49.1,49.1,29.78,NNW,327,0.0,0.0,100,0.00,,,0.00,Wunderground v.1.12,2013-04-12 03:40:00,
2013-04-11 20:50:00,49.1,49.1,29.79,WNW,302,1.0,4.0,100,0.00,,,0.00,Wunderground v.1.12,2013-04-12 03:50:00,
2013-04-11 21:00:00,49.2,49.2,29.79,WNW,286,2.0,2.0,100,0.00,,,0.00,Wunderground v.1.12,2013-04-12 04:00:00,
2013-04-11 21:10:00,48.9,48.9,29.79,WNW,286,0.0,0.0,100,0.00,,,0.00,Wunderground v.1.12,2013-04-12 04:10:00,
2013-04-11 21:20:00,48.5,48.5,29.80,South,190,0.0,0.0,100,0.00,,,0.00,Wunderground v.1.12,2013-04-12 04:20:00,
2013-04-11 21:30:00,48.2,48.2,29.80,North,360,0.0,3.0,100,0.00,,,0.00,Wunderground v.1.12,2013-04-12 04:30:00,
2013-04-11 21:40:00,47.7,47.7,29.80,North,360,0.0,0.0,100,0.00,,,0.00,Wunderground v.1.12,2013-04-12 04:40:00,
2013-04-11 21:50:00,47.0,47.0,29.80,North,360,0.0,0.0,100,0.00,,,0.00,Wunderground v.1.12,2013-04-12 04:50:00,
2013-04-11 22:00:00,46.5,46.5,29.80,North,11,0.0,0.0,100,0.00,,,0.00,Wunderground v.1.12,2013-04-12 05:00:00,
2013-04-11 22:10:00,45.8,45.8,29.81,North,11,0.0,0.0,100,0.00,,,0.00,Wunderground v.1.12,2013-04-12 05:10:00,
2013-04-11 22:20:00,45.5,45.5,29.80,NNE,22,0.0,0.0,100,0.00,,,0.00,Wunderground v.1.12,2013-04-12 05:20:00,
2013-04-11 22:30:00,45.1,45.1,29.80,NNE,22,0.0,0.0,100,0.00,,,0.00,Wunderground v.1.12,2013-04-12 05:30:00,
2013-04-11 22:40:00,44.5,44.5,29.80,NNE,22,0.0,0.0,100,0.00,,,0.00,Wunderground v.1.12,2013-04-12 05:40:00,
2013-04-11 22:50:00,44.5,44.5,29.80,NNE,24,0.0,0.0,100,0.00,,,0.00,Wunderground v.1.12,2013-04-12 05:50:00,
2013-04-11 23:00:00,44.9,44.9,29.80,East,94,0.0,0.0,100,0.00,,,0.00,Wunderground v.1.12,2013-04-12 06:00:00,
2013-04-11 23:10:00,44.6,44.6,29.79,ESE,120,0.0,0.0,100,0.00,,,0.00,Wunderground v.1.12,2013-04-12 06:10:00,
2013-04-11 23:20:00,44.6,44.6,29.79,ESE,120,0.0,0.0,100,0.00,,,0.00,Wunderground v.1.12,2013-04-12 06:20:00,
2013-04-11 23:30:00,44.6,44.6,29.79,ESE,120,0.0,0.0,100,0.00,,,0.00,Wunderground v.1.12,2013-04-12 06:30:00,
2013-04-11 23:40:00,44.5,44.5,29.79,ESE,120,0.0,0.0,100,0.00,,,0.00,Wunderground v.1.12,2013-04-12 06:40:00,
2013-04-11 23:50:00,44.3,44.3,29.80,ESE,120,0.0,0.0,100,0.00,,,0.00,Wunderground v.1.12,2013-04-12 06:50:00,